createdAt,value
2019-01-11T00:00:29.278Z,78.37
2019-01-11T00:05:33.709Z,78.74
2019-01-11T00:10:38.096Z,78.75
2019-01-11T00:15:42.438Z,79.11
2019-01-11T00:20:46.790Z,79.35
2019-01-11T00:25:51.181Z,79.89
2019-01-11T00:30:55.536Z,80.66
2019-01-11T00:35:59.908Z,79.84
2019-01-11T00:41:04.296Z,80.66
2019-01-11T00:46:08.654Z,80.48
2019-01-11T00:51:12.998Z,80.17
2019-01-11T00:56:17.354Z,79.92
2019-01-11T01:01:21.754Z,80.63
2019-01-11T01:06:26.119Z,80.80
2019-01-11T01:11:30.556Z,80.44
2019-01-11T01:16:35.008Z,81.34
2019-01-11T01:21:39.377Z,80.97
2019-01-11T01:26:44.804Z,81.13
2019-01-11T01:31:49.338Z,81.61
2019-01-11T01:36:53.695Z,80.83
2019-01-11T01:41:58.172Z,81.66
2019-01-11T01:47:02.544Z,81.78
2019-01-11T01:52:06.925Z,80.83
2019-01-11T01:57:11.294Z,80.01
2019-01-11T02:02:15.689Z,81.01
2019-01-11T02:07:20.101Z,81.36
2019-01-11T02:12:24.510Z,82.12
2019-01-11T02:17:28.859Z,81.88
2019-01-11T02:22:33.227Z,82.64
2019-01-11T02:27:37.575Z,82.76
2019-01-11T02:32:42.000Z,82.85
2019-01-11T02:37:46.350Z,82.36
2019-01-11T02:42:50.916Z,83.04
2019-01-11T02:47:55.260Z,82.36
2019-01-11T02:53:00.168Z,82.27
2019-01-11T02:58:04.496Z,82.99
2019-01-11T03:03:08.871Z,82.33
2019-01-11T03:08:13.312Z,82.72
2019-01-11T03:13:17.689Z,82.76
2019-01-11T03:18:22.050Z,82.12
2019-01-11T03:23:26.474Z,81.42
2019-01-11T03:28:30.852Z,79.73
2019-01-11T03:33:35.324Z,79.43
2019-01-11T03:38:39.695Z,79.94
2019-01-11T03:43:44.094Z,79.24
2019-01-11T03:48:48.491Z,79.26
2019-01-11T03:53:52.833Z,78.68
2019-01-11T03:58:57.263Z,77.25
2019-01-11T04:04:01.995Z,78.20
2019-01-11T04:09:08.961Z,78.09
2019-01-11T04:14:13.361Z,77.06
2019-01-11T04:19:17.839Z,77.82
2019-01-11T04:24:23.822Z,77.85
2019-01-11T04:29:28.168Z,77.73
2019-01-11T04:34:32.508Z,77.72
2019-01-11T04:39:36.920Z,77.66
2019-01-11T04:44:41.297Z,77.47
2019-01-11T04:49:45.712Z,77.44
2019-01-11T04:54:50.053Z,77.17
2019-01-11T04:59:54.391Z,77.03
2019-01-11T05:04:58.769Z,76.38
2019-01-11T05:10:04.674Z,76.06
2019-01-11T05:15:09.181Z,76.20
2019-01-11T05:20:17.127Z,77.02
2019-01-11T05:25:21.678Z,75.46
2019-01-11T05:30:26.126Z,75.03
2019-01-11T05:35:30.856Z,74.77
2019-01-11T05:40:35.222Z,74.34
2019-01-11T05:45:40.082Z,74.92
2019-01-11T05:50:44.418Z,74.57
2019-01-11T05:55:48.826Z,74.35
2019-01-11T06:00:53.214Z,74.58
2019-01-11T06:05:57.605Z,74.49
2019-01-11T06:11:01.998Z,73.32
2019-01-11T06:16:06.596Z,75.24
2019-01-11T06:21:10.953Z,74.95
2019-01-11T06:26:15.305Z,75.14
2019-01-11T06:31:19.746Z,75.48
2019-01-11T06:36:24.113Z,74.04
2019-01-11T06:41:30.103Z,75.70
2019-01-11T06:46:34.865Z,76.23
2019-01-11T06:51:39.162Z,75.27
2019-01-11T06:56:43.536Z,76.03
2019-01-11T07:01:47.875Z,75.60
2019-01-11T07:06:52.211Z,75.86
2019-01-11T07:11:56.564Z,75.81
2019-01-11T07:17:00.940Z,76.21
2019-01-11T07:22:05.547Z,76.09
2019-01-11T07:27:09.912Z,77.14
2019-01-11T07:32:14.252Z,77.75
2019-01-11T07:37:18.654Z,77.75
2019-01-11T07:42:23.049Z,80.61
2019-01-11T07:47:27.390Z,79.77
2019-01-11T07:52:32.073Z,82.23
2019-01-11T07:57:36.465Z,83.19
2019-01-11T08:02:41.213Z,82.75
2019-01-11T08:07:45.555Z,81.79
2019-01-11T08:12:49.939Z,80.84
2019-01-11T08:17:54.320Z,81.78
2019-01-11T08:22:58.656Z,83.84
2019-01-11T08:28:02.996Z,82.44
2019-01-11T08:33:07.361Z,82.95
2019-01-11T08:38:11.738Z,83.55
2019-01-11T08:43:17.149Z,83.20
2019-01-11T08:48:21.529Z,83.89
2019-01-11T08:53:25.906Z,83.08
2019-01-11T08:58:30.292Z,82.75
2019-01-11T09:03:34.664Z,82.23
2019-01-11T09:08:39.015Z,82.39
2019-01-11T09:13:43.384Z,83.15
2019-01-11T09:18:47.851Z,81.36
2019-01-11T09:23:52.195Z,83.52
2019-01-11T09:28:56.586Z,82.89
2019-01-11T09:34:00.942Z,83.76
2019-01-11T09:39:07.717Z,83.93
2019-01-11T09:44:12.101Z,83.31
2019-01-11T09:49:16.468Z,83.52
2019-01-11T09:54:20.830Z,84.43
2019-01-11T09:59:25.198Z,84.61
2019-01-11T10:04:31.207Z,84.80
2019-01-11T10:09:35.558Z,85.49
2019-01-11T10:14:39.995Z,84.63
2019-01-11T10:19:44.417Z,86.01
2019-01-11T10:24:48.880Z,84.94
2019-01-11T10:29:53.239Z,86.90
2019-01-11T10:34:57.623Z,85.13
2019-01-11T10:40:01.995Z,85.55
2019-01-11T10:45:09.997Z,85.84
2019-01-11T10:50:16.744Z,85.84
2019-01-11T10:55:21.368Z,85.35
2019-01-11T11:00:25.707Z,85.87
2019-01-11T11:05:30.154Z,86.35
2019-01-11T11:10:35.610Z,87.14
2019-01-11T11:15:41.591Z,86.82
2019-01-11T11:20:47.005Z,86.91
2019-01-11T11:25:51.351Z,85.06
2019-01-11T11:30:57.119Z,85.26
2019-01-11T11:36:02.717Z,85.74
2019-01-11T11:41:07.064Z,84.97
2019-01-11T11:46:11.480Z,84.63
2019-01-11T11:51:15.839Z,84.87
2019-01-11T11:56:20.334Z,85.78
2019-01-11T12:01:24.865Z,86.41
2019-01-11T12:06:29.257Z,85.08
2019-01-11T12:11:33.594Z,85.20
2019-01-11T12:16:37.989Z,86.10
2019-01-11T12:21:47.700Z,85.67
2019-01-11T12:26:48.374Z,86.14
2019-01-11T12:31:54.929Z,88.87
2019-01-11T12:36:59.367Z,87.42
2019-01-11T12:42:03.707Z,87.39
2019-01-11T12:47:08.076Z,87.88
2019-01-11T12:52:12.443Z,89.71
2019-01-11T12:57:16.756Z,89.99
2019-01-11T13:02:21.130Z,89.87
2019-01-11T13:07:25.513Z,89.55
2019-01-11T13:12:29.878Z,89.39
2019-01-11T13:17:34.294Z,89.47
2019-01-11T13:22:38.633Z,88.67
2019-01-11T13:27:43.077Z,88.47
2019-01-11T13:32:47.643Z,87.96
2019-01-11T13:37:52.065Z,88.56
2019-01-11T13:42:56.516Z,87.81
2019-01-11T13:48:00.947Z,88.02
2019-01-11T13:53:06.893Z,88.69
2019-01-11T13:58:11.239Z,88.21
2019-01-11T14:03:15.663Z,89.27
2019-01-11T14:08:20.070Z,89.27
2019-01-11T14:13:24.410Z,87.73
2019-01-11T14:18:29.283Z,87.55
2019-01-11T14:23:33.655Z,87.87
2019-01-11T14:28:38.224Z,87.89
2019-01-11T14:33:42.577Z,87.85
2019-01-11T14:38:46.942Z,89.34
2019-01-11T14:43:51.618Z,88.97
2019-01-11T14:48:56.025Z,88.25
2019-01-11T14:54:00.398Z,89.61
2019-01-11T14:59:04.917Z,89.38
2019-01-11T15:04:09.477Z,90.14
2019-01-11T15:09:13.876Z,88.58
2019-01-11T15:14:18.309Z,88.11
2019-01-11T15:19:22.777Z,88.79
2019-01-11T15:24:27.277Z,88.45
2019-01-11T15:29:31.708Z,89.14
2019-01-11T15:34:36.072Z,87.83
2019-01-11T15:39:40.442Z,88.31
2019-01-11T15:44:44.791Z,88.24
2019-01-11T15:49:49.201Z,88.43
2019-01-11T15:54:54.654Z,88.84
2019-01-11T16:00:01.317Z,89.62
2019-01-11T16:05:06.953Z,90.24
2019-01-11T16:10:14.483Z,90.55
2019-01-11T16:15:28.151Z,92.15
2019-01-11T16:20:32.536Z,91.05
2019-01-11T16:25:36.978Z,91.52
2019-01-11T16:30:41.398Z,92.82
2019-01-11T16:35:45.757Z,93.64
2019-01-11T16:40:50.088Z,94.24
2019-01-11T16:45:54.469Z,94.27
2019-01-11T16:50:58.813Z,94.02
2019-01-11T16:56:03.194Z,94.44
2019-01-11T17:01:07.639Z,94.44
2019-01-11T17:06:12.027Z,93.36
2019-01-11T17:11:16.370Z,93.11
2019-01-11T17:16:20.733Z,94.06
2019-01-11T17:21:25.109Z,92.43
2019-01-11T17:26:29.500Z,93.51
2019-01-11T17:31:33.891Z,92.58
2019-01-11T17:36:38.270Z,91.22
2019-01-11T17:41:42.630Z,91.78
2019-01-11T17:46:46.993Z,91.16
2019-01-11T17:51:51.391Z,90.89
2019-01-11T17:56:55.741Z,91.65
2019-01-11T18:02:00.105Z,92.27
2019-01-11T18:07:04.505Z,91.93
2019-01-11T18:12:08.979Z,92.33
2019-01-11T18:17:13.313Z,92.28
2019-01-11T18:22:17.748Z,91.39
2019-01-11T18:27:22.181Z,90.74
2019-01-11T18:32:26.528Z,91.12
2019-01-11T18:37:31.089Z,91.44
2019-01-11T18:42:35.723Z,92.73
2019-01-11T18:47:40.088Z,93.11
2019-01-11T18:52:44.435Z,93.74
2019-01-11T18:57:48.846Z,93.82
2019-01-11T19:02:53.316Z,94.11
2019-01-11T19:07:57.680Z,93.65
2019-01-11T19:13:02.058Z,93.35
2019-01-11T19:18:06.444Z,93.72
2019-01-11T19:23:10.808Z,93.79
2019-01-11T19:28:15.162Z,94.08
2019-01-11T19:33:19.574Z,94.23
2019-01-11T19:38:23.952Z,93.86
2019-01-11T19:43:28.341Z,93.45
2019-01-11T19:48:32.791Z,94.07
2019-01-11T19:53:37.162Z,93.47
2019-01-11T19:58:42.286Z,93.88
2019-01-11T20:03:46.762Z,94.25
2019-01-11T20:08:51.270Z,93.29
2019-01-11T20:13:55.608Z,93.57
2019-01-11T20:18:59.979Z,93.30
2019-01-11T20:24:04.389Z,93.41
2019-01-11T20:29:08.755Z,93.06
2019-01-11T20:34:13.204Z,92.61
2019-01-11T20:39:17.546Z,93.29
2019-01-11T20:44:22.010Z,94.37
2019-01-11T20:49:26.489Z,93.85
2019-01-11T20:54:31.798Z,93.66
2019-01-11T20:59:36.162Z,92.78
2019-01-11T21:04:40.539Z,93.32
2019-01-11T21:09:44.925Z,92.85
2019-01-11T21:14:49.327Z,93.01
2019-01-11T21:19:53.699Z,92.72
2019-01-11T21:25:00.324Z,92.92
2019-01-11T21:30:10.091Z,93.43
2019-01-11T21:35:14.582Z,93.73
2019-01-11T21:40:20.570Z,94.01
2019-01-11T21:45:24.974Z,93.93
2019-01-11T21:50:29.348Z,93.87
2019-01-11T21:55:33.737Z,92.85
2019-01-11T22:00:38.623Z,92.60
2019-01-11T22:05:43.004Z,93.80
2019-01-11T22:10:47.405Z,93.20
2019-01-11T22:15:51.775Z,92.61
2019-01-11T22:20:56.186Z,92.55
2019-01-11T22:26:00.552Z,92.13
2019-01-11T22:31:05.803Z,91.66
2019-01-11T22:36:10.171Z,90.80
2019-01-11T22:41:14.651Z,91.10
2019-01-11T22:46:18.986Z,91.01
2019-01-11T22:51:23.331Z,90.46
2019-01-11T22:56:27.727Z,91.71
2019-01-11T23:01:38.109Z,91.10
2019-01-11T23:06:58.019Z,91.08
2019-01-11T23:12:08.356Z,91.86
2019-01-11T23:17:31.207Z,91.55
2019-01-11T23:22:35.555Z,91.37
2019-01-11T23:27:39.925Z,91.10
2019-01-11T23:32:44.289Z,91.14
2019-01-11T23:37:48.658Z,91.18
2019-01-11T23:42:53.105Z,91.16
2019-01-11T23:47:57.488Z,91.15
2019-01-11T23:53:01.820Z,91.32
2019-01-11T23:58:06.162Z,90.92
